sensor_id;sensor_type;location;lat;lon;timestamp;temperature;humidity
41628;DHT22;27321;50.816;6.054;2023-02-03T00:02:14;9.40;80.00
41628;DHT22;27321;50.816;6.054;2023-02-03T00:05:15;9.40;79.60
41628;DHT22;27321;50.816;6.054;2023-02-03T00:08:16;9.40;79.70
41628;DHT22;27321;50.816;6.054;2023-02-03T00:11:18;9.40;79.70
41628;DHT22;27321;50.816;6.054;2023-02-03T00:14:19;9.50;79.20
41628;DHT22;27321;50.816;6.054;2023-02-03T00:17:20;9.40;79.60
41628;DHT22;27321;50.816;6.054;2023-02-03T00:20:21;9.40;79.60
41628;DHT22;27321;50.816;6.054;2023-02-03T00:23:22;9.50;79.20
41628;DHT22;27321;50.816;6.054;2023-02-03T00:26:25;9.40;79.40
41628;DHT22;27321;50.816;6.054;2023-02-03T00:29:28;9.40;79.40
41628;DHT22;27321;50.816;6.054;2023-02-03T00:32:29;9.30;79.50
41628;DHT22;27321;50.816;6.054;2023-02-03T00:35:30;9.30;79.70
41628;DHT22;27321;50.816;6.054;2023-02-03T00:38:32;9.30;79.60
41628;DHT22;27321;50.816;6.054;2023-02-03T00:41:33;9.30;79.50
41628;DHT22;27321;50.816;6.054;2023-02-03T00:44:34;9.40;79.40
41628;DHT22;27321;50.816;6.054;2023-02-03T00:47:35;9.40;79.20
41628;DHT22;27321;50.816;6.054;2023-02-03T00:50:36;9.40;79.20
41628;DHT22;27321;50.816;6.054;2023-02-03T00:53:37;9.40;79.00
41628;DHT22;27321;50.816;6.054;2023-02-03T00:56:38;9.50;78.90
41628;DHT22;27321;50.816;6.054;2023-02-03T00:59:39;9.50;78.90
41628;DHT22;27321;50.816;6.054;2023-02-03T01:02:40;9.40;78.90
41628;DHT22;27321;50.816;6.054;2023-02-03T01:05:41;9.40;79.10
41628;DHT22;27321;50.816;6.054;2023-02-03T01:08:44;9.40;79.10
41628;DHT22;27321;50.816;6.054;2023-02-03T01:11:45;9.40;78.90
41628;DHT22;27321;50.816;6.054;2023-02-03T01:14:48;9.50;79.00
41628;DHT22;27321;50.816;6.054;2023-02-03T01:17:50;9.50;79.10
41628;DHT22;27321;50.816;6.054;2023-02-03T01:20:51;9.40;78.90
41628;DHT22;27321;50.816;6.054;2023-02-03T01:23:55;9.40;79.00
41628;DHT22;27321;50.816;6.054;2023-02-03T01:26:58;9.40;79.20
41628;DHT22;27321;50.816;6.054;2023-02-03T01:29:59;9.50;78.90
41628;DHT22;27321;50.816;6.054;2023-02-03T01:33:00;9.50;78.90
41628;DHT22;27321;50.816;6.054;2023-02-03T01:36:01;9.40;78.70
41628;DHT22;27321;50.816;6.054;2023-02-03T01:39:04;9.40;78.90
41628;DHT22;27321;50.816;6.054;2023-02-03T01:42:08;9.40;78.70
41628;DHT22;27321;50.816;6.054;2023-02-03T01:45:12;9.50;78.90
41628;DHT22;27321;50.816;6.054;2023-02-03T01:48:13;9.50;78.60
41628;DHT22;27321;50.816;6.054;2023-02-03T01:51:14;9.50;78.80
41628;DHT22;27321;50.816;6.054;2023-02-03T01:54:23;9.50;79.20
41628;DHT22;27321;50.816;6.054;2023-02-03T01:57:48;9.40;79.30
41628;DHT22;27321;50.816;6.054;2023-02-03T02:00:52;9.40;79.30
41628;DHT22;27321;50.816;6.054;2023-02-03T02:03:57;9.40;79.50
41628;DHT22;27321;50.816;6.054;2023-02-03T02:07:00;9.40;79.40
41628;DHT22;27321;50.816;6.054;2023-02-03T02:10:01;9.40;79.60
41628;DHT22;27321;50.816;6.054;2023-02-03T02:13:04;9.40;79.60
41628;DHT22;27321;50.816;6.054;2023-02-03T02:20:13;9.40;79.60
41628;DHT22;27321;50.816;6.054;2023-02-03T02:23:40;9.40;79.20
41628;DHT22;27321;50.816;6.054;2023-02-03T02:27:04;9.40;79.10
41628;DHT22;27321;50.816;6.054;2023-02-03T02:30:49;9.50;79.40
41628;DHT22;27321;50.816;6.054;2023-02-03T02:34:03;9.40;79.00
41628;DHT22;27321;50.816;6.054;2023-02-03T02:41:10;9.40;78.80
41628;DHT22;27321;50.816;6.054;2023-02-03T02:44:22;9.50;78.70
41628;DHT22;27321;50.816;6.054;2023-02-03T02:47:26;9.40;78.90
41628;DHT22;27321;50.816;6.054;2023-02-03T02:50:30;9.30;79.10
41628;DHT22;27321;50.816;6.054;2023-02-03T02:53:41;9.40;79.10
41628;DHT22;27321;50.816;6.054;2023-02-03T02:56:50;9.30;79.10
41628;DHT22;27321;50.816;6.054;2023-02-03T02:59:54;9.30;79.10
41628;DHT22;27321;50.816;6.054;2023-02-03T03:02:55;9.30;79.30
41628;DHT22;27321;50.816;6.054;2023-02-03T03:09:37;9.30;79.50
41628;DHT22;27321;50.816;6.054;2023-02-03T03:12:48;9.30;79.20
41628;DHT22;27321;50.816;6.054;2023-02-03T03:15:55;9.40;79.30
41628;DHT22;27321;50.816;6.054;2023-02-03T03:19:02;9.30;79.30
41628;DHT22;27321;50.816;6.054;2023-02-03T03:22:06;9.30;79.50
41628;DHT22;27321;50.816;6.054;2023-02-03T03:25:13;9.30;79.70
41628;DHT22;27321;50.816;6.054;2023-02-03T03:28:23;9.30;79.50
41628;DHT22;27321;50.816;6.054;2023-02-03T03:31:26;9.30;79.70
41628;DHT22;27321;50.816;6.054;2023-02-03T03:34:28;9.30;79.60
41628;DHT22;27321;50.816;6.054;2023-02-03T03:37:45;9.40;79.30
41628;DHT22;27321;50.816;6.054;2023-02-03T03:40:57;9.40;79.10
41628;DHT22;27321;50.816;6.054;2023-02-03T03:44:04;9.40;78.80
41628;DHT22;27321;50.816;6.054;2023-02-03T03:47:20;9.40;79.00
41628;DHT22;27321;50.816;6.054;2023-02-03T03:50:48;9.40;79.20
41628;DHT22;27321;50.816;6.054;2023-02-03T03:53:53;9.40;79.20
41628;DHT22;27321;50.816;6.054;2023-02-03T03:57:04;9.40;79.30
41628;DHT22;27321;50.816;6.054;2023-02-03T04:00:10;9.40;79.50
41628;DHT22;27321;50.816;6.054;2023-02-03T04:03:22;9.30;79.60
41628;DHT22;27321;50.816;6.054;2023-02-03T04:06:25;9.30;79.20
41628;DHT22;27321;50.816;6.054;2023-02-03T04:09:26;9.30;79.50
41628;DHT22;27321;50.816;6.054;2023-02-03T04:12:27;9.30;79.40
41628;DHT22;27321;50.816;6.054;2023-02-03T04:15:28;9.30;79.30
41628;DHT22;27321;50.816;6.054;2023-02-03T04:18:29;9.30;79.50
41628;DHT22;27321;50.816;6.054;2023-02-03T04:21:30;9.30;79.60
41628;DHT22;27321;50.816;6.054;2023-02-03T04:24:31;9.30;79.70
41628;DHT22;27321;50.816;6.054;2023-02-03T04:27:33;9.20;79.80
41628;DHT22;27321;50.816;6.054;2023-02-03T04:30:34;9.20;80.00
41628;DHT22;27321;50.816;6.054;2023-02-03T04:33:35;9.20;79.50
41628;DHT22;27321;50.816;6.054;2023-02-03T04:36:36;9.30;79.60
41628;DHT22;27321;50.816;6.054;2023-02-03T04:39:38;9.30;79.60
41628;DHT22;27321;50.816;6.054;2023-02-03T04:42:39;9.30;79.40
41628;DHT22;27321;50.816;6.054;2023-02-03T04:45:41;9.30;79.70
41628;DHT22;27321;50.816;6.054;2023-02-03T04:48:42;9.30;79.50
41628;DHT22;27321;50.816;6.054;2023-02-03T04:51:43;9.30;79.60
41628;DHT22;27321;50.816;6.054;2023-02-03T04:54:43;9.30;79.20
41628;DHT22;27321;50.816;6.054;2023-02-03T04:57:44;9.30;79.40
41628;DHT22;27321;50.816;6.054;2023-02-03T05:00:45;9.30;79.20
41628;DHT22;27321;50.816;6.054;2023-02-03T05:03:46;9.40;79.10
41628;DHT22;27321;50.816;6.054;2023-02-03T05:06:47;9.30;79.20
41628;DHT22;27321;50.816;6.054;2023-02-03T05:09:48;9.30;79.10
41628;DHT22;27321;50.816;6.054;2023-02-03T05:12:49;9.40;79.10
41628;DHT22;27321;50.816;6.054;2023-02-03T05:15:50;9.40;79.00
41628;DHT22;27321;50.816;6.054;2023-02-03T05:18:51;9.40;78.80
41628;DHT22;27321;50.816;6.054;2023-02-03T05:21:52;9.40;78.70
41628;DHT22;27321;50.816;6.054;2023-02-03T05:24:53;9.40;78.90
41628;DHT22;27321;50.816;6.054;2023-02-03T05:27:54;9.30;78.90
41628;DHT22;27321;50.816;6.054;2023-02-03T05:31:01;9.30;79.00
41628;DHT22;27321;50.816;6.054;2023-02-03T05:34:03;9.40;79.00
41628;DHT22;27321;50.816;6.054;2023-02-03T05:37:04;9.40;78.80
41628;DHT22;27321;50.816;6.054;2023-02-03T05:40:05;9.30;79.10
41628;DHT22;27321;50.816;6.054;2023-02-03T05:43:26;9.30;78.80
41628;DHT22;27321;50.816;6.054;2023-02-03T05:46:28;9.40;78.80
41628;DHT22;27321;50.816;6.054;2023-02-03T05:49:28;9.40;79.00
41628;DHT22;27321;50.816;6.054;2023-02-03T05:52:29;9.40;79.00
41628;DHT22;27321;50.816;6.054;2023-02-03T05:55:31;9.40;78.70
41628;DHT22;27321;50.816;6.054;2023-02-03T05:58:32;9.40;78.70
41628;DHT22;27321;50.816;6.054;2023-02-03T06:01:33;9.30;78.80
41628;DHT22;27321;50.816;6.054;2023-02-03T06:04:34;9.30;78.80
41628;DHT22;27321;50.816;6.054;2023-02-03T06:07:36;9.40;78.40
41628;DHT22;27321;50.816;6.054;2023-02-03T06:10:36;9.40;78.40
41628;DHT22;27321;50.816;6.054;2023-02-03T06:13:37;9.40;78.20
41628;DHT22;27321;50.816;6.054;2023-02-03T06:16:41;9.30;78.20
41628;DHT22;27321;50.816;6.054;2023-02-03T06:19:43;9.30;78.30
41628;DHT22;27321;50.816;6.054;2023-02-03T06:22:44;9.30;78.50
41628;DHT22;27321;50.816;6.054;2023-02-03T06:25:48;9.30;78.30
41628;DHT22;27321;50.816;6.054;2023-02-03T06:28:49;9.30;78.20
41628;DHT22;27321;50.816;6.054;2023-02-03T06:31:50;9.30;78.40
41628;DHT22;27321;50.816;6.054;2023-02-03T06:34:51;9.30;78.10
41628;DHT22;27321;50.816;6.054;2023-02-03T06:37:52;9.30;78.00
41628;DHT22;27321;50.816;6.054;2023-02-03T06:40:53;9.30;78.00
41628;DHT22;27321;50.816;6.054;2023-02-03T06:43:54;9.30;78.00
41628;DHT22;27321;50.816;6.054;2023-02-03T06:46:55;9.30;77.80
41628;DHT22;27321;50.816;6.054;2023-02-03T06:49:58;9.30;78.00
41628;DHT22;27321;50.816;6.054;2023-02-03T06:52:59;9.30;78.00
41628;DHT22;27321;50.816;6.054;2023-02-03T06:55:59;9.40;77.50
41628;DHT22;27321;50.816;6.054;2023-02-03T06:59:01;9.30;77.50
41628;DHT22;27321;50.816;6.054;2023-02-03T07:02:03;9.30;77.70
41628;DHT22;27321;50.816;6.054;2023-02-03T07:05:04;9.30;77.60
41628;DHT22;27321;50.816;6.054;2023-02-03T07:08:06;9.30;77.40
41628;DHT22;27321;50.816;6.054;2023-02-03T07:11:07;9.30;77.40
41628;DHT22;27321;50.816;6.054;2023-02-03T07:14:08;9.30;77.50
41628;DHT22;27321;50.816;6.054;2023-02-03T07:17:09;9.40;77.40
41628;DHT22;27321;50.816;6.054;2023-02-03T07:20:10;9.30;77.40
41628;DHT22;27321;50.816;6.054;2023-02-03T07:23:11;9.30;77.50
41628;DHT22;27321;50.816;6.054;2023-02-03T07:26:12;9.30;77.30
41628;DHT22;27321;50.816;6.054;2023-02-03T07:29:13;9.40;77.20
41628;DHT22;27321;50.816;6.054;2023-02-03T07:32:14;9.40;77.50
41628;DHT22;27321;50.816;6.054;2023-02-03T07:35:16;9.40;77.30
41628;DHT22;27321;50.816;6.054;2023-02-03T07:38:17;9.40;76.80
41628;DHT22;27321;50.816;6.054;2023-02-03T07:41:18;9.40;77.20
41628;DHT22;27321;50.816;6.054;2023-02-03T07:44:19;9.50;77.00
41628;DHT22;27321;50.816;6.054;2023-02-03T07:47:20;9.50;77.10
41628;DHT22;27321;50.816;6.054;2023-02-03T07:50:21;9.50;77.10
41628;DHT22;27321;50.816;6.054;2023-02-03T07:53:22;9.50;76.60
41628;DHT22;27321;50.816;6.054;2023-02-03T07:56:23;9.50;77.10
41628;DHT22;27321;50.816;6.054;2023-02-03T07:59:24;9.50;76.70
41628;DHT22;27321;50.816;6.054;2023-02-03T08:02:25;9.50;76.90
41628;DHT22;27321;50.816;6.054;2023-02-03T08:05:26;9.50;76.90
41628;DHT22;27321;50.816;6.054;2023-02-03T08:08:27;9.50;77.40
41628;DHT22;27321;50.816;6.054;2023-02-03T08:11:28;9.50;77.20
41628;DHT22;27321;50.816;6.054;2023-02-03T08:14:29;9.50;76.80
41628;DHT22;27321;50.816;6.054;2023-02-03T08:17:31;9.50;76.80
41628;DHT22;27321;50.816;6.054;2023-02-03T08:20:33;9.50;76.80
41628;DHT22;27321;50.816;6.054;2023-02-03T08:23:34;9.50;76.70
41628;DHT22;27321;50.816;6.054;2023-02-03T08:26:36;9.50;77.00
41628;DHT22;27321;50.816;6.054;2023-02-03T08:29:37;9.50;76.90
41628;DHT22;27321;50.816;6.054;2023-02-03T08:32:38;9.50;77.00
41628;DHT22;27321;50.816;6.054;2023-02-03T08:35:39;9.50;77.10
41628;DHT22;27321;50.816;6.054;2023-02-03T08:38:41;9.50;76.80
41628;DHT22;27321;50.816;6.054;2023-02-03T08:41:41;9.50;77.10
41628;DHT22;27321;50.816;6.054;2023-02-03T08:44:43;9.50;77.00
41628;DHT22;27321;50.816;6.054;2023-02-03T08:47:44;9.50;77.00
41628;DHT22;27321;50.816;6.054;2023-02-03T08:50:45;9.50;77.10
41628;DHT22;27321;50.816;6.054;2023-02-03T08:53:51;9.50;77.10
41628;DHT22;27321;50.816;6.054;2023-02-03T08:56:52;9.50;77.30
41628;DHT22;27321;50.816;6.054;2023-02-03T08:59:53;9.50;77.50
41628;DHT22;27321;50.816;6.054;2023-02-03T09:02:54;9.50;77.40
41628;DHT22;27321;50.816;6.054;2023-02-03T09:05:55;9.50;77.70
41628;DHT22;27321;50.816;6.054;2023-02-03T09:08:56;9.50;77.90
41628;DHT22;27321;50.816;6.054;2023-02-03T09:11:58;9.50;77.90
41628;DHT22;27321;50.816;6.054;2023-02-03T09:15:02;9.50;77.90
41628;DHT22;27321;50.816;6.054;2023-02-03T09:18:03;9.60;77.90
41628;DHT22;27321;50.816;6.054;2023-02-03T09:21:06;9.50;78.00
41628;DHT22;27321;50.816;6.054;2023-02-03T09:24:08;9.60;78.10
41628;DHT22;27321;50.816;6.054;2023-02-03T09:27:09;9.50;78.10
41628;DHT22;27321;50.816;6.054;2023-02-03T09:30:10;9.50;78.40
41628;DHT22;27321;50.816;6.054;2023-02-03T09:33:13;9.50;78.70
41628;DHT22;27321;50.816;6.054;2023-02-03T09:36:14;9.60;78.50
41628;DHT22;27321;50.816;6.054;2023-02-03T09:39:15;9.60;78.80
41628;DHT22;27321;50.816;6.054;2023-02-03T09:45:31;9.60;79.50
41628;DHT22;27321;50.816;6.054;2023-02-03T09:48:38;9.60;80.20
41628;DHT22;27321;50.816;6.054;2023-02-03T09:51:56;9.50;80.50
41628;DHT22;27321;50.816;6.054;2023-02-03T09:58:33;9.50;81.30
41628;DHT22;27321;50.816;6.054;2023-02-03T10:04:57;9.50;81.30
41628;DHT22;27321;50.816;6.054;2023-02-03T10:12:18;9.50;81.50
41628;DHT22;27321;50.816;6.054;2023-02-03T10:15:45;9.40;81.90
41628;DHT22;27321;50.816;6.054;2023-02-03T10:18:52;9.50;82.40
41628;DHT22;27321;50.816;6.054;2023-02-03T10:21:57;9.50;82.30
41628;DHT22;27321;50.816;6.054;2023-02-03T10:25:32;9.50;82.40
41628;DHT22;27321;50.816;6.054;2023-02-03T10:28:53;9.50;82.50
41628;DHT22;27321;50.816;6.054;2023-02-03T10:31:55;9.50;82.50
41628;DHT22;27321;50.816;6.054;2023-02-03T10:34:57;9.50;82.90
41628;DHT22;27321;50.816;6.054;2023-02-03T10:37:58;9.40;83.20
41628;DHT22;27321;50.816;6.054;2023-02-03T10:40:59;9.40;83.40
41628;DHT22;27321;50.816;6.054;2023-02-03T10:44:04;9.40;83.50
41628;DHT22;27321;50.816;6.054;2023-02-03T10:47:28;9.40;83.50
41628;DHT22;27321;50.816;6.054;2023-02-03T10:50:37;9.40;84.00
41628;DHT22;27321;50.816;6.054;2023-02-03T10:53:42;9.40;84.30
41628;DHT22;27321;50.816;6.054;2023-02-03T10:56:45;9.40;84.40
41628;DHT22;27321;50.816;6.054;2023-02-03T10:59:47;9.40;84.30
41628;DHT22;27321;50.816;6.054;2023-02-03T11:06:23;9.40;84.50
41628;DHT22;27321;50.816;6.054;2023-02-03T11:09:39;9.50;84.50
41628;DHT22;27321;50.816;6.054;2023-02-03T11:12:42;9.50;84.60
41628;DHT22;27321;50.816;6.054;2023-02-03T11:19:02;9.50;84.60
41628;DHT22;27321;50.816;6.054;2023-02-03T11:22:04;9.50;84.70
41628;DHT22;27321;50.816;6.054;2023-02-03T11:25:17;9.60;84.30
41628;DHT22;27321;50.816;6.054;2023-02-03T11:28:26;9.60;84.40
41628;DHT22;27321;50.816;6.054;2023-02-03T11:31:30;9.60;84.60
41628;DHT22;27321;50.816;6.054;2023-02-03T11:34:35;9.50;84.60
41628;DHT22;27321;50.816;6.054;2023-02-03T11:37:44;9.60;84.50
41628;DHT22;27321;50.816;6.054;2023-02-03T11:40:59;9.60;84.40
41628;DHT22;27321;50.816;6.054;2023-02-03T11:44:10;9.60;84.20
41628;DHT22;27321;50.816;6.054;2023-02-03T11:47:21;9.60;84.30
41628;DHT22;27321;50.816;6.054;2023-02-03T11:50:39;9.60;84.10
41628;DHT22;27321;50.816;6.054;2023-02-03T11:54:03;9.60;83.80
41628;DHT22;27321;50.816;6.054;2023-02-03T11:57:30;9.60;84.00
41628;DHT22;27321;50.816;6.054;2023-02-03T12:00:36;9.60;84.20
41628;DHT22;27321;50.816;6.054;2023-02-03T12:32:18;9.60;84.70
41628;DHT22;27321;50.816;6.054;2023-02-03T12:38:53;9.60;85.20
41628;DHT22;27321;50.816;6.054;2023-02-03T12:42:05;9.60;84.80
41628;DHT22;27321;50.816;6.054;2023-02-03T12:45:16;9.60;85.00
41628;DHT22;27321;50.816;6.054;2023-02-03T12:48:23;9.60;84.90
41628;DHT22;27321;50.816;6.054;2023-02-03T12:55:04;9.60;84.70
41628;DHT22;27321;50.816;6.054;2023-02-03T12:58:45;9.60;84.70
41628;DHT22;27321;50.816;6.054;2023-02-03T13:01:59;9.50;84.90
41628;DHT22;27321;50.816;6.054;2023-02-03T13:05:13;9.60;85.10
41628;DHT22;27321;50.816;6.054;2023-02-03T13:18:44;9.60;85.20
41628;DHT22;27321;50.816;6.054;2023-02-03T13:21:50;9.60;84.90
41628;DHT22;27321;50.816;6.054;2023-02-03T13:25:11;9.60;84.70
41628;DHT22;27321;50.816;6.054;2023-02-03T13:28:52;9.70;84.80
41628;DHT22;27321;50.816;6.054;2023-02-03T13:32:57;9.60;85.30
41628;DHT22;27321;50.816;6.054;2023-02-03T13:40:14;9.60;85.50
41628;DHT22;27321;50.816;6.054;2023-02-03T13:43:40;9.70;84.70
41628;DHT22;27321;50.816;6.054;2023-02-03T13:46:48;9.60;85.30
41628;DHT22;27321;50.816;6.054;2023-02-03T13:49:55;9.60;85.10
41628;DHT22;27321;50.816;6.054;2023-02-03T13:53:05;9.60;85.20
41628;DHT22;27321;50.816;6.054;2023-02-03T13:56:19;9.60;85.20
41628;DHT22;27321;50.816;6.054;2023-02-03T14:02:51;9.60;85.50
41628;DHT22;27321;50.816;6.054;2023-02-03T14:05:58;9.60;85.30
41628;DHT22;27321;50.816;6.054;2023-02-03T14:09:02;9.70;85.80
41628;DHT22;27321;50.816;6.054;2023-02-03T14:12:30;9.60;85.50
41628;DHT22;27321;50.816;6.054;2023-02-03T14:15:33;9.70;85.60
41628;DHT22;27321;50.816;6.054;2023-02-03T14:18:43;9.80;85.30
41628;DHT22;27321;50.816;6.054;2023-02-03T14:21:50;9.80;85.30
41628;DHT22;27321;50.816;6.054;2023-02-03T14:24:55;9.80;85.20
41628;DHT22;27321;50.816;6.054;2023-02-03T14:28:11;9.80;85.30
41628;DHT22;27321;50.816;6.054;2023-02-03T14:31:17;9.80;85.30
41628;DHT22;27321;50.816;6.054;2023-02-03T14:34:41;9.80;85.40
41628;DHT22;27321;50.816;6.054;2023-02-03T14:37:56;9.80;85.60
41628;DHT22;27321;50.816;6.054;2023-02-03T14:41:01;9.80;85.60
41628;DHT22;27321;50.816;6.054;2023-02-03T14:54:54;9.80;85.60
41628;DHT22;27321;50.816;6.054;2023-02-03T14:58:05;9.80;85.30
41628;DHT22;27321;50.816;6.054;2023-02-03T15:04:46;9.90;85.10
41628;DHT22;27321;50.816;6.054;2023-02-03T15:07:49;9.90;85.20
41628;DHT22;27321;50.816;6.054;2023-02-03T15:10:51;9.90;85.10
41628;DHT22;27321;50.816;6.054;2023-02-03T15:13:55;9.90;85.10
41628;DHT22;27321;50.816;6.054;2023-02-03T15:17:12;9.90;85.30
41628;DHT22;27321;50.816;6.054;2023-02-03T15:20:36;10.00;85.00
41628;DHT22;27321;50.816;6.054;2023-02-03T15:23:42;9.90;84.90
41628;DHT22;27321;50.816;6.054;2023-02-03T15:26:55;9.90;85.10
41628;DHT22;27321;50.816;6.054;2023-02-03T15:29:56;10.00;84.60
41628;DHT22;27321;50.816;6.054;2023-02-03T15:33:04;10.00;84.60
41628;DHT22;27321;50.816;6.054;2023-02-03T15:36:16;10.00;84.80
41628;DHT22;27321;50.816;6.054;2023-02-03T15:46:07;10.00;85.10
41628;DHT22;27321;50.816;6.054;2023-02-03T15:49:33;10.00;84.60
41628;DHT22;27321;50.816;6.054;2023-02-03T15:52:39;10.00;84.90
41628;DHT22;27321;50.816;6.054;2023-02-03T15:55:44;10.00;84.60
41628;DHT22;27321;50.816;6.054;2023-02-03T15:58:48;10.00;84.50
41628;DHT22;27321;50.816;6.054;2023-02-03T16:01:49;10.00;84.40
41628;DHT22;27321;50.816;6.054;2023-02-03T16:04:51;10.00;84.50
41628;DHT22;27321;50.816;6.054;2023-02-03T16:07:52;10.00;84.40
41628;DHT22;27321;50.816;6.054;2023-02-03T16:10:54;10.00;84.50
41628;DHT22;27321;50.816;6.054;2023-02-03T16:13:57;10.00;84.30
41628;DHT22;27321;50.816;6.054;2023-02-03T16:16:59;10.00;84.30
41628;DHT22;27321;50.816;6.054;2023-02-03T16:23:23;10.00;84.30
41628;DHT22;27321;50.816;6.054;2023-02-03T16:26:29;10.10;84.10
41628;DHT22;27321;50.816;6.054;2023-02-03T16:29:34;10.10;83.20
41628;DHT22;27321;50.816;6.054;2023-02-03T16:36:23;10.10;83.30
41628;DHT22;27321;50.816;6.054;2023-02-03T16:39:43;10.00;83.40
41628;DHT22;27321;50.816;6.054;2023-02-03T16:43:03;10.00;83.30
41628;DHT22;27321;50.816;6.054;2023-02-03T16:46:23;10.00;83.30
41628;DHT22;27321;50.816;6.054;2023-02-03T16:49:42;10.00;83.00
41628;DHT22;27321;50.816;6.054;2023-02-03T16:53:02;10.00;83.20
41628;DHT22;27321;50.816;6.054;2023-02-03T16:56:03;10.00;82.90
41628;DHT22;27321;50.816;6.054;2023-02-03T16:59:05;10.00;82.80
41628;DHT22;27321;50.816;6.054;2023-02-03T17:02:06;10.00;82.60
41628;DHT22;27321;50.816;6.054;2023-02-03T17:05:07;10.00;82.80
41628;DHT22;27321;50.816;6.054;2023-02-03T17:08:08;10.00;82.80
41628;DHT22;27321;50.816;6.054;2023-02-03T17:11:12;10.00;82.40
41628;DHT22;27321;50.816;6.054;2023-02-03T17:14:15;10.10;82.20
41628;DHT22;27321;50.816;6.054;2023-02-03T17:17:16;10.10;82.00
41628;DHT22;27321;50.816;6.054;2023-02-03T17:20:17;10.10;82.20
41628;DHT22;27321;50.816;6.054;2023-02-03T17:23:18;10.10;82.40
41628;DHT22;27321;50.816;6.054;2023-02-03T17:26:19;10.10;82.30
41628;DHT22;27321;50.816;6.054;2023-02-03T17:29:20;10.10;82.30
41628;DHT22;27321;50.816;6.054;2023-02-03T17:32:24;10.10;82.20
41628;DHT22;27321;50.816;6.054;2023-02-03T17:35:25;10.10;82.20
41628;DHT22;27321;50.816;6.054;2023-02-03T17:38:26;10.10;82.00
41628;DHT22;27321;50.816;6.054;2023-02-03T17:41:27;10.10;82.00
41628;DHT22;27321;50.816;6.054;2023-02-03T17:44:29;10.10;82.30
41628;DHT22;27321;50.816;6.054;2023-02-03T17:47:31;10.10;82.30
41628;DHT22;27321;50.816;6.054;2023-02-03T17:50:34;10.10;82.30
41628;DHT22;27321;50.816;6.054;2023-02-03T17:53:36;10.00;82.50
41628;DHT22;27321;50.816;6.054;2023-02-03T17:56:38;10.10;82.50
41628;DHT22;27321;50.816;6.054;2023-02-03T17:59:39;10.00;82.70
41628;DHT22;27321;50.816;6.054;2023-02-03T18:02:40;10.10;82.90
41628;DHT22;27321;50.816;6.054;2023-02-03T18:05:49;10.00;82.80
41628;DHT22;27321;50.816;6.054;2023-02-03T18:08:51;10.00;83.00
41628;DHT22;27321;50.816;6.054;2023-02-03T18:11:52;10.10;83.10
41628;DHT22;27321;50.816;6.054;2023-02-03T18:14:53;10.00;83.10
41628;DHT22;27321;50.816;6.054;2023-02-03T18:17:57;10.00;83.30
41628;DHT22;27321;50.816;6.054;2023-02-03T18:21:01;10.00;83.50
41628;DHT22;27321;50.816;6.054;2023-02-03T18:24:03;10.00;83.50
41628;DHT22;27321;50.816;6.054;2023-02-03T18:27:05;10.00;83.60
41628;DHT22;27321;50.816;6.054;2023-02-03T18:30:07;10.10;83.50
41628;DHT22;27321;50.816;6.054;2023-02-03T18:33:11;10.10;83.20
41628;DHT22;27321;50.816;6.054;2023-02-03T18:36:13;10.00;83.60
41628;DHT22;27321;50.816;6.054;2023-02-03T18:39:15;10.00;83.60
41628;DHT22;27321;50.816;6.054;2023-02-03T18:42:17;10.00;83.30
41628;DHT22;27321;50.816;6.054;2023-02-03T18:45:18;10.00;83.80
41628;DHT22;27321;50.816;6.054;2023-02-03T18:48:19;10.00;83.70
41628;DHT22;27321;50.816;6.054;2023-02-03T18:51:21;10.10;83.30
41628;DHT22;27321;50.816;6.054;2023-02-03T18:54:23;10.10;83.40
41628;DHT22;27321;50.816;6.054;2023-02-03T18:57:24;10.10;83.50
41628;DHT22;27321;50.816;6.054;2023-02-03T19:00:26;10.10;83.70
41628;DHT22;27321;50.816;6.054;2023-02-03T19:03:27;10.20;83.40
41628;DHT22;27321;50.816;6.054;2023-02-03T19:06:31;10.20;83.70
41628;DHT22;27321;50.816;6.054;2023-02-03T19:09:33;10.20;83.70
41628;DHT22;27321;50.816;6.054;2023-02-03T19:12:34;10.10;83.90
41628;DHT22;27321;50.816;6.054;2023-02-03T19:15:35;10.00;84.30
41628;DHT22;27321;50.816;6.054;2023-02-03T19:18:36;10.00;84.80
41628;DHT22;27321;50.816;6.054;2023-02-03T19:21:37;10.00;84.90
41628;DHT22;27321;50.816;6.054;2023-02-03T19:24:38;10.00;85.00
41628;DHT22;27321;50.816;6.054;2023-02-03T19:27:39;10.00;85.10
41628;DHT22;27321;50.816;6.054;2023-02-03T19:30:40;9.90;85.60
41628;DHT22;27321;50.816;6.054;2023-02-03T19:33:42;9.90;85.50
41628;DHT22;27321;50.816;6.054;2023-02-03T19:36:43;9.90;85.80
41628;DHT22;27321;50.816;6.054;2023-02-03T19:39:46;9.90;86.00
41628;DHT22;27321;50.816;6.054;2023-02-03T19:42:49;9.80;86.00
41628;DHT22;27321;50.816;6.054;2023-02-03T19:45:50;9.80;86.20
41628;DHT22;27321;50.816;6.054;2023-02-03T19:48:51;9.80;86.10
41628;DHT22;27321;50.816;6.054;2023-02-03T19:51:53;9.90;86.00
41628;DHT22;27321;50.816;6.054;2023-02-03T19:54:54;9.90;85.60
41628;DHT22;27321;50.816;6.054;2023-02-03T19:57:56;9.90;85.50
41628;DHT22;27321;50.816;6.054;2023-02-03T20:00:59;10.00;85.40
41628;DHT22;27321;50.816;6.054;2023-02-03T20:04:00;9.90;85.30
41628;DHT22;27321;50.816;6.054;2023-02-03T20:07:04;9.90;86.00
41628;DHT22;27321;50.816;6.054;2023-02-03T20:10:05;9.90;85.70
41628;DHT22;27321;50.816;6.054;2023-02-03T20:13:07;10.00;85.40
41628;DHT22;27321;50.816;6.054;2023-02-03T20:16:10;9.90;85.60
41628;DHT22;27321;50.816;6.054;2023-02-03T20:19:11;9.90;85.60
41628;DHT22;27321;50.816;6.054;2023-02-03T20:22:15;9.90;85.70
41628;DHT22;27321;50.816;6.054;2023-02-03T20:25:15;9.80;85.90
41628;DHT22;27321;50.816;6.054;2023-02-03T20:28:17;9.80;86.20
41628;DHT22;27321;50.816;6.054;2023-02-03T20:31:22;9.80;86.20
41628;DHT22;27321;50.816;6.054;2023-02-03T20:34:23;9.80;86.40
41628;DHT22;27321;50.816;6.054;2023-02-03T20:37:26;9.90;86.10
41628;DHT22;27321;50.816;6.054;2023-02-03T20:40:28;9.90;85.90
41628;DHT22;27321;50.816;6.054;2023-02-03T20:43:29;9.90;85.70
41628;DHT22;27321;50.816;6.054;2023-02-03T20:46:31;9.80;85.90
41628;DHT22;27321;50.816;6.054;2023-02-03T20:49:32;9.80;86.20
41628;DHT22;27321;50.816;6.054;2023-02-03T20:52:33;9.70;86.20
41628;DHT22;27321;50.816;6.054;2023-02-03T20:55:34;9.70;86.60
41628;DHT22;27321;50.816;6.054;2023-02-03T20:58:35;9.70;86.50
41628;DHT22;27321;50.816;6.054;2023-02-03T21:01:36;9.70;86.60
41628;DHT22;27321;50.816;6.054;2023-02-03T21:04:38;9.70;86.70
41628;DHT22;27321;50.816;6.054;2023-02-03T21:07:57;9.70;86.80
41628;DHT22;27321;50.816;6.054;2023-02-03T21:10:58;9.80;86.60
41628;DHT22;27321;50.816;6.054;2023-02-03T21:13:59;9.80;86.40
41628;DHT22;27321;50.816;6.054;2023-02-03T21:17:02;9.80;86.40
41628;DHT22;27321;50.816;6.054;2023-02-03T21:20:20;9.70;86.80
41628;DHT22;27321;50.816;6.054;2023-02-03T21:23:42;9.70;87.00
41628;DHT22;27321;50.816;6.054;2023-02-03T21:26:44;9.70;86.70
41628;DHT22;27321;50.816;6.054;2023-02-03T21:29:45;9.70;86.70
41628;DHT22;27321;50.816;6.054;2023-02-03T21:32:46;9.60;86.60
41628;DHT22;27321;50.816;6.054;2023-02-03T21:35:47;9.50;86.50
41628;DHT22;27321;50.816;6.054;2023-02-03T21:38:50;9.50;86.60